createdAt,value
2022-08-02T00:01:50.036Z,3.83
2022-08-02T00:04:18.623Z,3.90
2022-08-02T00:06:47.708Z,3.67
2022-08-02T00:09:16.307Z,4.13
2022-08-02T00:11:46.199Z,4.50
2022-08-02T00:14:14.800Z,4.27
2022-08-02T00:16:43.310Z,3.80
2022-08-02T00:19:11.803Z,3.97
2022-08-02T00:21:40.358Z,3.63
2022-08-02T00:24:28.493Z,3.60
2022-08-02T00:26:59.292Z,3.20
2022-08-02T00:29:28.019Z,3.13
2022-08-02T00:31:56.565Z,2.90
2022-08-02T00:34:28.379Z,2.67
2022-08-02T00:36:58.723Z,2.77
2022-08-02T00:39:35.018Z,2.90
2022-08-02T00:42:05.871Z,2.77
2022-08-02T00:44:34.476Z,2.67
2022-08-02T00:47:03.050Z,2.73
2022-08-02T00:49:33.065Z,3.13
2022-08-02T00:52:02.035Z,2.43
2022-08-02T00:54:30.585Z,2.60
2022-08-02T00:56:59.118Z,2.60
2022-08-02T00:59:29.019Z,2.40
2022-08-02T01:02:08.291Z,2.50
2022-08-02T01:04:36.909Z,2.63
2022-08-02T01:07:12.787Z,2.40
2022-08-02T01:09:42.651Z,2.63
2022-08-02T01:12:12.877Z,2.37
2022-08-02T01:14:45.035Z,2.10
2022-08-02T01:17:17.662Z,2.40
2022-08-02T01:19:52.857Z,2.50
2022-08-02T01:23:01.937Z,2.50
2022-08-02T01:25:56.591Z,2.67
2022-08-02T01:28:34.811Z,2.60
2022-08-02T01:31:09.423Z,2.20
2022-08-02T01:33:45.977Z,2.53
2022-08-02T01:36:15.742Z,2.57
2022-08-02T01:38:48.242Z,2.67
2022-08-02T01:41:19.970Z,2.30
2022-08-02T01:43:52.818Z,2.50
2022-08-02T01:46:22.040Z,2.60
2022-08-02T01:48:51.864Z,2.40
2022-08-02T01:51:42.157Z,2.43
2022-08-02T01:54:14.091Z,3.20
2022-08-02T01:56:43.744Z,2.50
2022-08-02T01:59:17.015Z,2.60
2022-08-02T02:01:47.412Z,2.57
2022-08-02T02:04:17.621Z,2.80
2022-08-02T02:06:46.651Z,2.90
2022-08-02T02:09:16.327Z,2.67
2022-08-02T02:12:11.940Z,2.63
2022-08-02T02:14:38.166Z,2.60
2022-08-02T02:17:07.198Z,2.40
2022-08-02T02:19:37.747Z,4.10
2022-08-02T02:22:06.864Z,3.47
2022-08-02T02:24:36.735Z,2.60
2022-08-02T02:27:06.040Z,2.60
2022-08-02T02:29:36.975Z,2.60
2022-08-02T02:32:06.824Z,2.40
2022-08-02T02:34:39.025Z,2.70
2022-08-02T02:37:09.874Z,2.43
2022-08-02T02:39:39.250Z,2.57
2022-08-02T02:42:10.597Z,2.43
2022-08-02T02:44:42.282Z,2.37
2022-08-02T02:47:11.906Z,2.90
2022-08-02T02:49:41.229Z,2.50
2022-08-02T02:52:10.893Z,2.53
2022-08-02T02:54:40.017Z,2.40
2022-08-02T02:57:09.567Z,3.20
2022-08-02T02:59:42.927Z,2.63
2022-08-02T03:02:19.631Z,2.40
2022-08-02T03:04:57.101Z,2.50
2022-08-02T03:07:27.371Z,2.70
2022-08-02T03:09:55.961Z,2.77
2022-08-02T03:12:30.970Z,2.40
2022-08-02T03:15:04.148Z,2.80
2022-08-02T03:17:40.006Z,7.67
2022-08-02T03:20:11.741Z,4.13
2022-08-02T03:22:40.339Z,3.43
2022-08-02T03:25:10.063Z,3.70
2022-08-02T03:27:38.927Z,5.10
2022-08-02T03:30:10.880Z,4.57
2022-08-02T03:32:40.620Z,4.77
2022-08-02T03:35:11.848Z,2.90
2022-08-02T03:37:40.622Z,4.07
2022-08-02T03:40:11.002Z,4.60
2022-08-02T03:42:40.833Z,2.97
2022-08-02T03:45:12.719Z,3.00
2022-08-02T03:47:41.660Z,2.40
2022-08-02T03:50:12.870Z,2.60
2022-08-02T03:52:42.928Z,2.57
2022-08-02T03:55:12.569Z,2.70
2022-08-02T03:57:41.844Z,2.30
2022-08-02T04:00:14.251Z,2.40
2022-08-02T04:02:43.059Z,2.13
2022-08-02T04:05:11.592Z,2.10
2022-08-02T04:08:34.266Z,2.40
2022-08-02T04:10:28.809Z,2.30
2022-08-02T04:12:58.238Z,2.00
2022-08-02T04:15:28.137Z,1.80
2022-08-02T04:17:57.976Z,2.00
2022-08-02T04:20:29.515Z,2.10
2022-08-02T04:23:02.001Z,1.90
2022-08-02T04:25:35.315Z,2.00
2022-08-02T04:28:17.107Z,1.80
2022-08-02T04:30:48.731Z,1.90
2022-08-02T04:33:17.325Z,1.90
2022-08-02T04:35:46.593Z,2.00
2022-08-02T04:38:15.941Z,1.80
2022-08-02T04:40:52.899Z,2.00
2022-08-02T04:43:21.900Z,1.90
2022-08-02T04:45:53.764Z,1.90
2022-08-02T04:48:23.100Z,1.83
2022-08-02T04:50:52.160Z,1.87
2022-08-02T04:53:21.033Z,2.17
2022-08-02T04:55:50.024Z,2.20
2022-08-02T04:58:39.341Z,2.43
2022-08-02T05:01:08.684Z,2.40
2022-08-02T05:03:37.401Z,2.30
2022-08-02T05:06:18.665Z,2.30
2022-08-02T05:08:52.973Z,2.33
2022-08-02T05:11:23.178Z,2.20
2022-08-02T05:14:03.618Z,2.27
2022-08-02T05:16:33.824Z,2.20
2022-08-02T05:19:02.805Z,2.57
2022-08-02T05:21:32.023Z,2.37
2022-08-02T05:24:00.781Z,2.40
2022-08-02T05:26:29.361Z,2.40
2022-08-02T05:28:57.965Z,2.30
2022-08-02T05:31:26.486Z,2.30
2022-08-02T05:33:56.431Z,2.20
2022-08-02T05:36:25.098Z,2.50
2022-08-02T05:39:04.628Z,2.60
2022-08-02T05:41:33.412Z,2.00
2022-08-02T05:44:02.041Z,2.20
2022-08-02T05:46:30.553Z,2.07
2022-08-02T05:49:00.631Z,2.20
2022-08-02T05:51:32.482Z,2.57
2022-08-02T05:54:07.037Z,2.40
2022-08-02T05:56:38.599Z,2.40
2022-08-02T05:59:13.712Z,2.50
2022-08-02T06:01:44.949Z,2.60
2022-08-02T06:04:20.024Z,2.50
2022-08-02T06:06:49.367Z,2.93
2022-08-02T06:09:23.007Z,2.70
2022-08-02T06:12:00.504Z,2.50
2022-08-02T06:14:32.995Z,2.80
2022-08-02T06:17:04.461Z,2.30
2022-08-02T06:19:47.061Z,2.40
2022-08-02T06:22:35.022Z,2.20
2022-08-02T06:25:11.871Z,2.23
2022-08-02T06:27:56.852Z,2.70
2022-08-02T06:30:25.743Z,2.80
2022-08-02T06:32:54.426Z,2.90
2022-08-02T06:35:26.248Z,3.00
2022-08-02T06:37:59.662Z,2.37
2022-08-02T06:40:31.257Z,2.88
2022-08-02T06:43:13.202Z,2.80
2022-08-02T06:45:42.127Z,2.70
2022-08-02T06:48:11.075Z,2.80
2022-08-02T06:50:42.303Z,2.80
2022-08-02T06:53:11.589Z,2.97
2022-08-02T06:55:43.880Z,2.90
2022-08-02T06:58:13.639Z,2.80
2022-08-02T07:00:43.107Z,2.80
2022-08-02T07:03:11.735Z,2.63
2022-08-02T07:05:41.910Z,2.90
2022-08-02T07:08:10.458Z,2.60
2022-08-02T07:10:38.998Z,2.42
2022-08-02T07:13:07.484Z,2.75
2022-08-02T07:15:36.047Z,3.20
2022-08-02T07:18:04.887Z,2.72
2022-08-02T07:20:33.469Z,2.80
2022-08-02T07:23:03.412Z,2.70
2022-08-02T07:26:02.746Z,2.70
2022-08-02T07:28:24.378Z,2.75
2022-08-02T07:30:53.496Z,2.78
2022-08-02T07:33:37.396Z,4.60
2022-08-02T07:36:09.925Z,4.70
2022-08-02T07:38:47.187Z,2.78
2022-08-02T07:41:15.724Z,2.85
2022-08-02T07:43:46.314Z,2.60
2022-08-02T07:46:14.845Z,3.05
2022-08-02T07:48:43.282Z,2.60
2022-08-02T07:51:16.915Z,2.50
2022-08-02T07:53:51.327Z,3.25
2022-08-02T07:56:30.644Z,2.72
2022-08-02T07:58:59.344Z,3.00
2022-08-02T08:01:28.108Z,2.90
2022-08-02T08:03:56.756Z,2.90
2022-08-02T08:06:28.867Z,2.92
2022-08-02T08:08:58.926Z,2.60
2022-08-02T08:11:27.754Z,3.03
2022-08-02T08:13:56.215Z,2.83
2022-08-02T08:16:26.246Z,2.85
2022-08-02T08:18:54.771Z,2.92
2022-08-02T08:21:23.581Z,3.47
2022-08-02T08:23:52.095Z,2.70
2022-08-02T08:26:21.986Z,2.75
2022-08-02T08:28:50.748Z,2.50
2022-08-02T08:31:19.311Z,2.80
2022-08-02T08:33:48.018Z,2.90
2022-08-02T08:36:16.674Z,2.95
2022-08-02T08:38:45.263Z,2.90
2022-08-02T08:41:13.875Z,2.75
2022-08-02T08:43:43.835Z,2.40
2022-08-02T08:46:16.725Z,2.63
2022-08-02T08:48:48.140Z,2.38
2022-08-02T08:51:17.692Z,2.92
2022-08-02T08:53:49.121Z,2.78
2022-08-02T08:56:18.158Z,2.70
2022-08-02T08:58:48.637Z,2.83
2022-08-02T09:01:17.745Z,2.35
2022-08-02T09:03:46.963Z,2.88
2022-08-02T09:06:15.527Z,2.30
2022-08-02T09:08:44.134Z,2.58
2022-08-02T09:11:17.514Z,2.80
2022-08-02T09:13:55.365Z,2.50
2022-08-02T09:16:32.153Z,2.60
2022-08-02T09:19:01.724Z,2.70
2022-08-02T09:21:38.169Z,2.50
2022-08-02T09:24:17.199Z,3.13
2022-08-02T09:26:47.160Z,2.80
2022-08-02T09:29:18.100Z,2.90
2022-08-02T09:31:50.211Z,2.58
2022-08-02T09:34:19.971Z,2.67
2022-08-02T09:36:54.497Z,2.75
2022-08-02T09:39:26.438Z,2.70
2022-08-02T09:41:56.636Z,2.53
2022-08-02T09:44:32.611Z,5.60
2022-08-02T09:47:01.082Z,3.47
2022-08-02T09:49:29.738Z,3.30
2022-08-02T09:51:58.392Z,3.45
2022-08-02T09:54:29.779Z,2.72
2022-08-02T09:57:01.037Z,3.15
2022-08-02T09:59:32.031Z,2.55
2022-08-02T10:02:04.414Z,2.80
2022-08-02T10:04:53.523Z,2.72
2022-08-02T10:07:23.429Z,2.50
2022-08-02T10:09:53.131Z,2.57
2022-08-02T10:12:22.399Z,2.50
2022-08-02T10:14:52.978Z,2.50
2022-08-02T10:17:21.944Z,2.30
2022-08-02T10:20:03.355Z,2.40
2022-08-02T10:22:34.780Z,2.30
2022-08-02T10:25:05.221Z,2.50
2022-08-02T10:27:49.279Z,2.33
2022-08-02T10:30:25.074Z,2.30
2022-08-02T10:32:54.423Z,2.60
2022-08-02T10:35:26.158Z,2.57
2022-08-02T10:37:57.501Z,2.67
2022-08-02T10:40:30.540Z,2.50
2022-08-02T10:43:00.691Z,2.50
2022-08-02T10:45:31.167Z,2.60
2022-08-02T10:48:04.070Z,2.63
2022-08-02T10:50:56.214Z,2.80
2022-08-02T10:53:28.808Z,3.70
2022-08-02T10:55:59.551Z,2.83
2022-08-02T10:58:30.210Z,3.33
2022-08-02T11:01:38.282Z,3.47
2022-08-02T11:04:10.730Z,3.33
2022-08-02T11:07:10.968Z,3.47
2022-08-02T11:09:39.843Z,3.38
2022-08-02T11:12:10.693Z,3.00
2022-08-02T11:14:41.565Z,2.90
2022-08-02T11:17:15.297Z,3.40
2022-08-02T11:20:16.095Z,3.10
2022-08-02T11:22:46.142Z,7.25
2022-08-02T11:26:02.810Z,4.90
2022-08-02T11:28:26.163Z,8.77
2022-08-02T11:30:58.888Z,3.72
2022-08-02T11:33:34.007Z,3.40
2022-08-02T11:36:05.323Z,3.22
2022-08-02T11:38:34.729Z,3.38
2022-08-02T11:41:06.198Z,3.25
2022-08-02T11:43:39.685Z,3.00
2022-08-02T11:46:14.545Z,3.15
2022-08-02T11:48:45.411Z,3.30
2022-08-02T11:51:14.751Z,3.08
2022-08-02T11:53:54.049Z,3.00
2022-08-02T11:56:31.648Z,3.10
2022-08-02T11:59:05.801Z,3.13
2022-08-02T12:01:45.972Z,2.78
2022-08-02T12:04:22.873Z,2.88
2022-08-02T12:06:56.750Z,2.83
2022-08-02T12:09:27.358Z,3.20
2022-08-02T12:11:56.579Z,2.80
2022-08-02T12:14:25.678Z,2.70
2022-08-02T12:17:11.962Z,2.67
2022-08-02T12:19:43.376Z,3.20
2022-08-02T12:22:16.351Z,3.08
2022-08-02T12:24:47.376Z,2.90
2022-08-02T12:27:32.766Z,4.18
2022-08-02T12:30:05.656Z,4.57
2022-08-02T12:32:34.442Z,3.00
2022-08-02T12:35:09.695Z,2.47
2022-08-02T12:37:39.483Z,2.90
2022-08-02T12:40:26.217Z,2.55
2022-08-02T12:42:57.842Z,2.97
2022-08-02T12:45:40.877Z,2.75
2022-08-02T12:48:11.301Z,2.90
2022-08-02T12:50:41.672Z,2.85
2022-08-02T12:53:11.837Z,3.00
2022-08-02T12:55:59.452Z,3.10
2022-08-02T12:58:31.996Z,2.50
2022-08-02T13:01:02.047Z,2.47
2022-08-02T13:04:11.010Z,2.70
2022-08-02T13:09:14.999Z,3.50
2022-08-02T13:11:44.144Z,4.82
2022-08-02T13:14:14.344Z,4.20
2022-08-02T13:16:44.073Z,3.20
2022-08-02T13:19:13.249Z,3.08
2022-08-02T13:22:02.065Z,2.90
2022-08-02T13:24:40.970Z,7.35
2022-08-02T13:27:22.356Z,14.27
2022-08-02T13:29:51.298Z,15.48
2022-08-02T13:32:20.039Z,5.40
2022-08-02T13:34:49.187Z,8.52
2022-08-02T13:37:19.301Z,5.20
2022-08-02T13:40:11.846Z,5.68
2022-08-02T13:42:36.728Z,3.13
2022-08-02T13:45:12.697Z,2.85
2022-08-02T13:48:03.220Z,3.25
2022-08-02T13:50:33.817Z,4.97
2022-08-02T13:53:03.903Z,4.18
2022-08-02T13:55:32.543Z,3.40
2022-08-02T13:58:01.215Z,4.40
2022-08-02T14:00:35.366Z,5.07
2022-08-02T14:03:06.278Z,3.00
2022-08-02T14:05:47.506Z,3.00
2022-08-02T14:08:20.146Z,2.70
2022-08-02T14:10:49.091Z,2.90
2022-08-02T14:13:17.927Z,2.78
2022-08-02T14:15:46.966Z,2.83
2022-08-02T14:18:15.849Z,2.70
2022-08-02T14:20:44.915Z,2.90
2022-08-02T14:23:13.540Z,2.60
2022-08-02T14:25:43.497Z,3.25
2022-08-02T14:28:12.368Z,2.80
2022-08-02T14:30:41.052Z,2.75
2022-08-02T14:33:09.657Z,2.83
2022-08-02T14:35:38.175Z,2.80
2022-08-02T14:38:06.764Z,2.53
2022-08-02T14:40:35.291Z,2.83
2022-08-02T14:43:05.414Z,2.60
2022-08-02T14:45:40.881Z,2.85
2022-08-02T14:48:25.656Z,2.78
2022-08-02T14:50:54.653Z,2.75
2022-08-02T14:53:23.453Z,2.70
2022-08-02T14:55:52.111Z,2.85
2022-08-02T14:58:22.025Z,2.65
2022-08-02T15:00:50.546Z,2.67
2022-08-02T15:03:21.263Z,2.70
2022-08-02T15:05:49.878Z,2.60
2022-08-02T15:08:19.783Z,2.63
2022-08-02T15:10:49.187Z,2.90
2022-08-02T15:13:17.738Z,2.70
2022-08-02T15:15:47.647Z,3.05
2022-08-02T15:18:16.257Z,2.30
2022-08-02T15:20:55.231Z,2.70
2022-08-02T15:23:37.513Z,2.58
2022-08-02T15:26:07.756Z,2.50
2022-08-02T15:28:36.375Z,2.55
2022-08-02T15:31:06.425Z,2.80
2022-08-02T15:33:34.882Z,10.05
2022-08-02T15:36:03.666Z,8.23
2022-08-02T15:38:32.587Z,3.90
2022-08-02T15:41:05.214Z,4.50
2022-08-02T15:43:40.838Z,6.63
2022-08-02T15:46:30.771Z,11.38
2022-08-02T15:49:00.092Z,4.93
2022-08-02T15:51:28.755Z,5.35
2022-08-02T15:53:57.252Z,4.80
2022-08-02T15:56:25.786Z,5.07
2022-08-02T15:58:58.887Z,3.67
2022-08-02T16:01:35.250Z,4.68
2022-08-02T16:04:07.901Z,27.80
2022-08-02T16:06:36.716Z,34.65
2022-08-02T16:09:05.568Z,38.72
2022-08-02T16:11:35.611Z,39.42
2022-08-02T16:14:13.208Z,24.85
2022-08-02T16:16:44.847Z,17.35
2022-08-02T16:19:47.809Z,21.90
2022-08-02T16:22:02.218Z,41.38
2022-08-02T16:24:30.934Z,29.45
2022-08-02T16:26:59.850Z,8.20
2022-08-02T16:29:28.430Z,5.55
2022-08-02T16:32:03.555Z,5.30
2022-08-02T16:34:45.095Z,5.10
2022-08-02T16:37:20.989Z,31.92
2022-08-02T16:39:49.586Z,19.15
2022-08-02T16:42:25.580Z,12.13
2022-08-02T16:44:55.702Z,9.18
2022-08-02T16:47:43.466Z,6.38
2022-08-02T16:50:14.403Z,4.10
2022-08-02T16:52:43.063Z,4.50
2022-08-02T16:55:13.571Z,4.70
2022-08-02T16:57:43.375Z,3.35
2022-08-02T17:00:19.027Z,3.13
2022-08-02T17:02:49.029Z,5.07
2022-08-02T17:05:17.830Z,4.63
2022-08-02T17:08:16.386Z,2.92
2022-08-02T17:10:36.197Z,3.10
2022-08-02T17:13:11.699Z,3.13
2022-08-02T17:16:08.126Z,3.85
2022-08-02T17:18:42.924Z,4.55
2022-08-02T17:21:13.070Z,12.10
2022-08-02T17:24:04.559Z,19.13
2022-08-02T17:26:30.248Z,11.93
2022-08-02T17:29:17.539Z,25.10
2022-08-02T17:32:04.830Z,15.73
2022-08-02T17:34:36.991Z,7.00
2022-08-02T17:37:06.325Z,7.20
2022-08-02T17:39:43.177Z,8.43
2022-08-02T17:42:15.274Z,10.85
2022-08-02T17:44:49.233Z,20.30
2022-08-02T17:47:18.158Z,24.25
2022-08-02T17:49:48.925Z,15.23
2022-08-02T17:52:49.922Z,7.50
2022-08-02T17:55:08.186Z,5.13
2022-08-02T17:57:57.070Z,7.45
2022-08-02T18:00:26.796Z,9.65
2022-08-02T18:02:55.875Z,10.63
2022-08-02T18:05:39.136Z,9.25
2022-08-02T18:08:09.124Z,7.45
2022-08-02T18:10:39.303Z,5.72
2022-08-02T18:13:07.954Z,5.07
2022-08-02T18:15:37.749Z,5.10
2022-08-02T18:18:06.975Z,5.53
2022-08-02T18:20:40.206Z,3.67
2022-08-02T18:23:13.463Z,4.22
2022-08-02T18:25:45.963Z,4.30
2022-08-02T18:28:17.204Z,14.32
2022-08-02T18:30:45.817Z,11.25
2022-08-02T18:33:58.018Z,4.82
2022-08-02T18:36:04.679Z,3.50
2022-08-02T18:38:33.275Z,3.17
2022-08-02T18:41:12.773Z,3.15
2022-08-02T18:43:43.710Z,5.53
2022-08-02T18:46:17.085Z,3.70
2022-08-02T18:48:48.814Z,5.28
2022-08-02T18:51:19.436Z,5.72
2022-08-02T18:53:51.349Z,6.45
2022-08-02T18:56:24.721Z,5.10
2022-08-02T18:58:54.425Z,3.70
2022-08-02T19:01:32.167Z,3.78
2022-08-02T19:04:03.139Z,3.05
2022-08-02T19:06:33.474Z,13.05
2022-08-02T19:09:11.153Z,50.92
2022-08-02T19:11:48.038Z,105.35
2022-08-02T19:14:27.404Z,62.72
2022-08-02T19:16:58.119Z,25.48
2022-08-02T19:19:29.204Z,12.07
2022-08-02T19:22:16.781Z,4.73
2022-08-02T19:24:51.792Z,4.72
2022-08-02T19:27:32.141Z,3.60
2022-08-02T19:30:03.129Z,4.20
2022-08-02T19:35:29.531Z,4.70
2022-08-02T19:38:09.291Z,4.47
2022-08-02T19:40:41.654Z,3.50
2022-08-02T19:44:26.240Z,4.50
2022-08-02T19:46:00.523Z,4.80
2022-08-02T19:48:29.207Z,4.80
2022-08-02T19:51:00.521Z,3.83
2022-08-02T19:53:48.024Z,4.70
2022-08-02T19:56:24.789Z,6.43
2022-08-02T20:01:48.724Z,5.57
2022-08-02T20:07:07.172Z,4.27
2022-08-02T20:09:47.051Z,4.07
2022-08-02T20:12:16.416Z,4.67
2022-08-02T20:14:51.225Z,6.63
2022-08-02T20:17:23.729Z,5.43
2022-08-02T20:19:56.439Z,4.90
2022-08-02T20:22:24.974Z,4.63
2022-08-02T20:24:56.782Z,4.20
2022-08-02T20:27:29.969Z,4.43
2022-08-02T20:29:58.791Z,3.60
2022-08-02T20:32:27.680Z,3.67
2022-08-02T20:34:56.969Z,3.53
2022-08-02T20:37:59.156Z,3.73
2022-08-02T20:40:16.740Z,4.47
2022-08-02T20:42:47.988Z,3.80
2022-08-02T20:45:16.989Z,4.00
2022-08-02T20:50:50.883Z,3.40
2022-08-02T20:53:23.955Z,3.23
2022-08-02T20:55:57.180Z,3.30
2022-08-02T20:58:26.556Z,3.37
2022-08-02T21:00:59.251Z,3.27
2022-08-02T21:03:38.875Z,3.13
2022-08-02T21:06:09.411Z,3.00
2022-08-02T21:08:38.257Z,3.20
2022-08-02T21:11:12.706Z,3.40
2022-08-02T21:13:46.999Z,3.50
2022-08-02T21:16:31.491Z,3.30
2022-08-02T21:19:00.547Z,3.17
2022-08-02T21:21:29.524Z,3.20
2022-08-02T21:23:59.177Z,3.13
2022-08-02T21:29:18.720Z,2.93
2022-08-02T21:31:47.255Z,2.90
2022-08-02T21:34:26.575Z,2.90
2022-08-02T21:36:56.072Z,2.90
2022-08-02T21:39:24.956Z,3.27
2022-08-02T21:41:55.270Z,2.97
2022-08-02T21:44:24.000Z,2.90
2022-08-02T21:46:54.525Z,3.27
2022-08-02T21:49:40.582Z,3.13
2022-08-02T21:52:13.195Z,2.80
2022-08-02T21:54:45.379Z,3.23
2022-08-02T21:57:34.789Z,3.00
2022-08-02T22:00:04.439Z,3.20
2022-08-02T22:02:32.995Z,2.90
2022-08-02T22:05:02.611Z,2.93
2022-08-02T22:07:38.212Z,3.13
2022-08-02T22:10:09.414Z,3.20
2022-08-02T22:12:39.407Z,2.90
2022-08-02T22:15:10.405Z,3.27
2022-08-02T22:17:53.653Z,2.93
2022-08-02T22:20:28.471Z,2.70
2022-08-02T22:22:57.882Z,2.70
2022-08-02T22:25:36.851Z,3.20
2022-08-02T22:28:37.774Z,2.60
2022-08-02T22:30:59.910Z,2.70
2022-08-02T22:33:46.972Z,3.37
2022-08-02T22:36:30.094Z,3.00
2022-08-02T22:38:58.727Z,3.00
2022-08-02T22:42:01.081Z,3.10
2022-08-02T22:44:18.670Z,2.93
2022-08-02T22:46:49.942Z,3.30
2022-08-02T22:49:38.595Z,2.90
2022-08-02T22:52:08.184Z,2.90
2022-08-02T22:54:39.329Z,2.67
2022-08-02T22:57:11.228Z,3.00
2022-08-02T22:58:54.020Z,5.33
2022-08-02T22:58:56.233Z,3.27
2022-08-02T22:58:58.176Z,3.80
2022-08-02T22:59:07.506Z,6.30
2022-08-02T22:59:10.287Z,3.00
2022-08-02T22:59:41.803Z,2.63
2022-08-02T23:02:10.671Z,2.70
2022-08-02T23:04:39.377Z,2.80
2022-08-02T23:07:08.021Z,2.93
2022-08-02T23:09:36.563Z,2.93
2022-08-02T23:12:05.857Z,3.10
2022-08-02T23:14:34.480Z,2.80
2022-08-02T23:17:22.103Z,2.80
2022-08-02T23:19:53.562Z,2.90
2022-08-02T23:22:29.262Z,2.77
2022-08-02T23:25:01.792Z,3.20
2022-08-02T23:27:30.806Z,2.90
2022-08-02T23:29:59.488Z,2.77
2022-08-02T23:32:29.774Z,2.83
2022-08-02T23:34:58.960Z,2.60
2022-08-02T23:37:27.675Z,2.83
2022-08-02T23:39:56.329Z,3.40
2022-08-02T23:42:25.500Z,2.97
2022-08-02T23:44:54.446Z,2.90
2022-08-02T23:47:23.250Z,3.13
2022-08-02T23:49:53.589Z,2.90
2022-08-02T23:52:24.865Z,3.20
2022-08-02T23:54:53.425Z,2.80
2022-08-02T23:57:21.944Z,2.80
2022-08-02T23:59:51.705Z,2.60
